createdAt,value
2022-10-25T00:01:25.670Z,3.83
2022-10-25T00:03:54.151Z,3.85
2022-10-25T00:06:22.263Z,4.63
2022-10-25T00:08:52.062Z,4.18
2022-10-25T00:11:28.190Z,4.53
2022-10-25T00:13:59.145Z,4.82
2022-10-25T00:16:33.217Z,4.30
2022-10-25T00:19:01.185Z,4.35
2022-10-25T00:21:29.276Z,4.45
2022-10-25T00:23:58.689Z,4.47
2022-10-25T00:26:26.599Z,4.07
2022-10-25T00:28:56.558Z,4.30
2022-10-25T00:31:25.421Z,4.13
2022-10-25T00:33:53.717Z,4.20
2022-10-25T00:36:25.518Z,4.55
2022-10-25T00:38:55.907Z,4.47
2022-10-25T00:41:27.687Z,4.32
2022-10-25T00:44:18.798Z,4.35
2022-10-25T00:46:46.926Z,4.50
2022-10-25T00:49:22.526Z,4.57
2022-10-25T00:52:03.574Z,4.95
2022-10-25T00:54:37.115Z,4.80
2022-10-25T00:57:13.471Z,4.82
2022-10-25T00:59:43.347Z,4.72
2022-10-25T01:02:12.849Z,4.82
2022-10-25T01:04:41.998Z,4.85
2022-10-25T01:07:10.228Z,5.25
2022-10-25T01:09:39.139Z,4.93
2022-10-25T01:12:07.346Z,4.75
2022-10-25T01:14:41.532Z,5.05
2022-10-25T01:17:24.479Z,4.90
2022-10-25T01:20:14.945Z,4.70
2022-10-25T01:22:48.881Z,4.68
2022-10-25T01:25:20.088Z,4.40
2022-10-25T01:28:14.329Z,4.35
2022-10-25T01:31:00.668Z,4.35
2022-10-25T01:33:45.795Z,4.88
2022-10-25T01:36:25.368Z,5.25
2022-10-25T01:42:01.466Z,5.05
2022-10-25T01:45:02.391Z,4.95
2022-10-25T01:47:42.351Z,5.03
2022-10-25T01:50:27.264Z,4.72
2022-10-25T01:55:39.731Z,4.70
2022-10-25T01:58:26.099Z,4.32
2022-10-25T02:01:35.702Z,4.35
2022-10-25T02:04:14.336Z,4.60
2022-10-25T02:07:07.459Z,4.68
2022-10-25T02:09:50.624Z,4.50
2022-10-25T02:12:39.381Z,4.65
2022-10-25T02:15:14.476Z,4.47
2022-10-25T02:17:50.071Z,4.07
2022-10-25T02:20:19.795Z,5.22
2022-10-25T02:22:49.623Z,4.28
2022-10-25T02:25:19.366Z,4.05
2022-10-25T02:30:16.345Z,4.18
2022-10-25T02:32:45.707Z,3.85
2022-10-25T02:35:17.654Z,4.10
2022-10-25T02:37:46.566Z,4.20
2022-10-25T02:40:15.426Z,3.75
2022-10-25T02:42:43.380Z,4.40
2022-10-25T02:45:12.181Z,4.30
2022-10-25T02:47:40.476Z,4.05
2022-10-25T02:50:08.762Z,3.85
2022-10-25T02:52:36.709Z,4.13
2022-10-25T02:55:06.009Z,3.50
2022-10-25T02:57:38.757Z,4.10
2022-10-25T03:00:08.550Z,4.05
2022-10-25T03:02:36.698Z,3.80
2022-10-25T03:05:04.815Z,3.22
2022-10-25T03:07:32.828Z,4.38
2022-10-25T03:10:00.935Z,5.07
2022-10-25T03:12:31.313Z,3.72
2022-10-25T03:14:59.263Z,3.92
2022-10-25T03:17:27.301Z,3.72
2022-10-25T03:19:55.293Z,3.90
2022-10-25T03:22:23.216Z,3.25
2022-10-25T03:24:53.603Z,3.60
2022-10-25T03:27:21.554Z,3.75
2022-10-25T03:29:49.464Z,3.58
2022-10-25T03:32:17.532Z,3.80
2022-10-25T03:34:45.524Z,3.13
2022-10-25T03:37:13.439Z,2.47
2022-10-25T03:39:43.372Z,3.35
2022-10-25T03:42:11.381Z,3.15
2022-10-25T03:44:39.466Z,3.33
2022-10-25T03:47:08.691Z,2.70
2022-10-25T03:49:36.619Z,3.28
2022-10-25T03:52:06.921Z,2.83
2022-10-25T03:54:35.838Z,2.63
2022-10-25T03:57:04.977Z,2.70
2022-10-25T03:59:32.902Z,3.00
2022-10-25T04:02:02.062Z,3.13
2022-10-25T04:04:30.145Z,2.90
2022-10-25T04:06:58.049Z,3.20
2022-10-25T04:09:26.944Z,2.95
2022-10-25T04:11:55.137Z,2.60
2022-10-25T04:14:23.280Z,2.88
2022-10-25T04:16:51.444Z,2.78
2022-10-25T04:19:19.430Z,3.17
2022-10-25T04:21:48.370Z,2.60
2022-10-25T04:24:17.726Z,3.00
2022-10-25T04:26:45.802Z,2.88
2022-10-25T04:29:13.768Z,2.70
2022-10-25T04:31:42.731Z,2.60
2022-10-25T04:34:10.861Z,2.75
2022-10-25T04:36:39.909Z,2.78
2022-10-25T04:39:08.764Z,2.97
2022-10-25T04:41:36.748Z,2.60
2022-10-25T04:44:04.908Z,3.15
2022-10-25T04:46:33.133Z,2.90
2022-10-25T04:49:01.032Z,2.47
2022-10-25T04:51:29.069Z,2.30
2022-10-25T04:53:58.327Z,2.53
2022-10-25T04:56:26.302Z,2.67
2022-10-25T04:58:54.292Z,2.65
2022-10-25T05:01:26.282Z,2.40
2022-10-25T05:03:54.490Z,2.50
2022-10-25T05:06:27.333Z,2.20
2022-10-25T05:08:56.258Z,3.03
2022-10-25T05:11:25.802Z,2.67
2022-10-25T05:13:53.958Z,2.45
2022-10-25T05:16:27.739Z,2.65
2022-10-25T05:18:56.583Z,2.67
2022-10-25T05:21:31.374Z,2.53
2022-10-25T05:24:02.013Z,2.38
2022-10-25T05:26:31.478Z,2.97
2022-10-25T05:29:00.163Z,2.40
2022-10-25T05:31:31.165Z,2.55
2022-10-25T05:34:01.839Z,2.55
2022-10-25T05:36:30.125Z,2.33
2022-10-25T05:39:00.242Z,2.10
2022-10-25T05:41:30.740Z,2.50
2022-10-25T05:44:01.697Z,2.53
2022-10-25T05:46:29.756Z,2.20
2022-10-25T05:49:00.388Z,2.25
2022-10-25T05:51:36.818Z,2.15
2022-10-25T05:54:07.889Z,1.88
2022-10-25T05:56:37.013Z,2.45
2022-10-25T05:59:10.302Z,2.25
2022-10-25T06:01:40.510Z,2.75
2022-10-25T06:04:08.934Z,2.20
2022-10-25T06:06:39.426Z,2.10
2022-10-25T06:09:08.329Z,2.25
2022-10-25T06:11:36.860Z,2.33
2022-10-25T06:14:06.740Z,1.92
2022-10-25T06:16:34.831Z,2.17
2022-10-25T06:19:02.860Z,2.28
2022-10-25T06:21:33.218Z,2.50
2022-10-25T06:24:01.313Z,2.40
2022-10-25T06:26:31.109Z,3.17
2022-10-25T06:31:30.128Z,2.50
2022-10-25T06:34:02.588Z,2.28
2022-10-25T06:36:31.922Z,2.42
2022-10-25T06:39:05.352Z,2.22
2022-10-25T06:41:39.766Z,2.38
2022-10-25T06:44:08.227Z,2.20
2022-10-25T06:49:27.416Z,2.63
2022-10-25T06:51:55.472Z,2.20
2022-10-25T06:54:23.468Z,2.97
2022-10-25T06:56:52.317Z,2.38
2022-10-25T06:59:21.035Z,2.85
2022-10-25T07:01:50.816Z,3.00
2022-10-25T07:04:19.235Z,2.80
2022-10-25T07:06:50.147Z,2.50
2022-10-25T07:09:39.192Z,2.55
2022-10-25T07:12:25.588Z,2.50
2022-10-25T07:14:54.493Z,2.65
2022-10-25T07:17:22.446Z,2.80
2022-10-25T07:19:50.473Z,2.40
2022-10-25T07:22:18.585Z,2.85
2022-10-25T07:24:46.497Z,2.30
2022-10-25T07:27:14.416Z,2.30
2022-10-25T07:29:44.592Z,2.67
2022-10-25T07:32:12.714Z,2.63
2022-10-25T07:34:40.649Z,3.03
2022-10-25T07:37:10.684Z,2.30
2022-10-25T07:39:38.648Z,2.90
2022-10-25T07:42:06.723Z,2.47
2022-10-25T07:44:35.794Z,2.72
2022-10-25T07:47:03.780Z,2.85
2022-10-25T07:49:31.864Z,3.53
2022-10-25T07:52:00.030Z,2.63
2022-10-25T07:54:28.067Z,2.80
2022-10-25T07:56:56.067Z,3.05
2022-10-25T07:59:24.716Z,3.08
2022-10-25T08:01:52.764Z,2.55
2022-10-25T08:04:21.008Z,2.65
2022-10-25T08:06:49.393Z,2.78
2022-10-25T08:09:36.809Z,2.75
2022-10-25T08:12:07.259Z,2.88
2022-10-25T08:14:38.152Z,2.67
2022-10-25T08:17:09.010Z,2.78
2022-10-25T08:19:37.263Z,4.30
2022-10-25T08:22:05.480Z,3.00
2022-10-25T08:24:35.764Z,2.95
2022-10-25T08:27:05.370Z,3.03
2022-10-25T08:29:33.372Z,2.70
2022-10-25T08:32:01.548Z,2.85
2022-10-25T08:34:33.085Z,3.13
2022-10-25T08:37:01.827Z,2.58
2022-10-25T08:39:29.848Z,2.58
2022-10-25T08:42:03.348Z,2.55
2022-10-25T08:44:48.973Z,3.22
2022-10-25T08:47:40.946Z,2.65
2022-10-25T08:50:28.911Z,3.13
2022-10-25T08:53:02.519Z,2.78
2022-10-25T08:55:41.651Z,3.20
2022-10-25T08:58:33.129Z,2.28
2022-10-25T09:01:11.802Z,3.08
2022-10-25T09:03:42.471Z,2.63
2022-10-25T09:06:41.141Z,3.10
2022-10-25T09:09:24.727Z,2.30
2022-10-25T09:11:55.794Z,3.10
2022-10-25T09:14:37.956Z,3.08
2022-10-25T09:17:19.290Z,3.15
2022-10-25T09:20:10.661Z,2.42
2022-10-25T09:22:47.872Z,2.83
2022-10-25T09:25:27.664Z,2.70
2022-10-25T09:30:41.123Z,2.90
2022-10-25T09:33:13.239Z,2.85
2022-10-25T09:35:57.042Z,2.92
2022-10-25T09:38:33.814Z,3.05
2022-10-25T09:41:11.974Z,2.83
2022-10-25T09:43:53.477Z,3.00
2022-10-25T09:46:57.904Z,2.95
2022-10-25T09:50:03.803Z,2.92
2022-10-25T09:55:54.794Z,2.67
2022-10-25T09:58:34.172Z,2.60
2022-10-25T10:01:08.498Z,3.00
2022-10-25T10:03:37.604Z,3.13
2022-10-25T10:06:26.836Z,3.10
2022-10-25T10:09:01.369Z,3.45
2022-10-25T10:11:31.218Z,3.08
2022-10-25T10:16:51.355Z,3.03
2022-10-25T10:19:28.206Z,2.97
2022-10-25T10:22:14.140Z,3.10
2022-10-25T10:24:45.476Z,3.00
2022-10-25T10:27:27.116Z,2.75
2022-10-25T10:30:01.649Z,2.90
2022-10-25T10:32:37.818Z,2.88
2022-10-25T10:35:36.202Z,2.83
2022-10-25T10:38:23.268Z,3.10
2022-10-25T10:40:55.561Z,2.58
2022-10-25T10:43:34.843Z,3.45
2022-10-25T10:46:09.324Z,2.72
2022-10-25T10:48:43.289Z,2.97
2022-10-25T10:51:50.682Z,3.10
2022-10-25T10:54:28.812Z,3.10
2022-10-25T10:57:02.337Z,3.00
2022-10-25T10:59:41.002Z,3.45
2022-10-25T11:02:41.461Z,5.05
2022-10-25T11:05:29.486Z,5.00
2022-10-25T11:08:00.750Z,3.85
2022-10-25T11:10:32.263Z,5.53
2022-10-25T11:13:21.539Z,4.22
2022-10-25T11:16:01.397Z,4.18
2022-10-25T11:19:08.191Z,4.68
2022-10-25T11:22:00.026Z,5.47
2022-10-25T11:24:45.238Z,5.10
2022-10-25T11:27:18.743Z,4.68
2022-10-25T11:30:09.724Z,4.28
2022-10-25T11:33:04.972Z,4.45
2022-10-25T11:35:47.182Z,4.55
2022-10-25T11:38:26.746Z,4.40
2022-10-25T11:41:21.069Z,4.10
2022-10-25T11:43:51.903Z,3.30
2022-10-25T11:46:39.544Z,3.72
2022-10-25T11:49:32.958Z,4.00
2022-10-25T11:52:26.366Z,3.38
2022-10-25T11:55:31.716Z,3.78
2022-10-25T11:58:30.818Z,3.90
2022-10-25T12:01:07.906Z,3.50
2022-10-25T12:03:57.664Z,3.70
2022-10-25T12:06:30.601Z,4.05
2022-10-25T12:09:12.869Z,3.88
2022-10-25T12:12:05.968Z,4.35
2022-10-25T12:14:40.220Z,3.70
2022-10-25T12:17:26.010Z,4.22
2022-10-25T12:19:58.025Z,4.28
2022-10-25T12:22:34.781Z,3.92
2022-10-25T12:25:10.722Z,4.82
2022-10-25T12:27:39.398Z,4.05
2022-10-25T12:30:17.063Z,4.23
2022-10-25T12:32:56.905Z,4.68
2022-10-25T12:35:43.006Z,4.43
2022-10-25T12:38:21.545Z,4.32
2022-10-25T12:40:51.921Z,4.40
2022-10-25T12:43:49.789Z,4.65
2022-10-25T12:46:49.776Z,4.60
2022-10-25T12:49:27.732Z,4.85
2022-10-25T12:52:33.055Z,4.53
2022-10-25T12:55:19.317Z,5.35
2022-10-25T12:58:22.381Z,5.25
2022-10-25T13:01:12.488Z,12.43
2022-10-25T13:03:59.692Z,9.82
2022-10-25T13:06:39.437Z,8.13
2022-10-25T13:09:22.193Z,7.03
2022-10-25T13:12:05.468Z,5.40
2022-10-25T13:14:34.770Z,4.85
2022-10-25T13:17:19.967Z,4.57
2022-10-25T13:19:55.352Z,6.72
2022-10-25T13:22:41.850Z,6.03
2022-10-25T13:25:09.758Z,6.10
2022-10-25T13:27:37.900Z,6.05
2022-10-25T13:30:28.421Z,5.85
2022-10-25T13:33:25.071Z,6.57
2022-10-25T13:35:54.145Z,5.95
2022-10-25T13:38:25.514Z,6.03
2022-10-25T13:41:26.606Z,6.05
2022-10-25T13:44:01.863Z,5.80
2022-10-25T13:46:44.388Z,6.20
2022-10-25T13:49:33.050Z,6.28
2022-10-25T13:52:07.082Z,6.13
2022-10-25T13:54:57.673Z,6.15
2022-10-25T13:57:52.317Z,5.90
2022-10-25T14:00:47.922Z,6.30
2022-10-25T14:03:20.458Z,7.20
2022-10-25T14:05:57.322Z,7.05
2022-10-25T14:08:33.194Z,5.53
2022-10-25T14:11:10.447Z,5.47
2022-10-25T14:14:00.602Z,5.40
2022-10-25T14:16:34.556Z,5.82
2022-10-25T14:19:44.058Z,5.82
2022-10-25T14:22:23.598Z,5.40
2022-10-25T14:24:55.440Z,5.32
2022-10-25T14:27:32.193Z,4.80
2022-10-25T14:30:24.357Z,5.07
2022-10-25T14:33:04.853Z,4.72
2022-10-25T14:35:37.503Z,4.88
2022-10-25T14:38:17.176Z,5.28
2022-10-25T14:43:38.189Z,5.20
2022-10-25T14:46:15.059Z,5.18
2022-10-25T14:48:48.055Z,5.18
2022-10-25T14:51:25.801Z,5.88
2022-10-25T14:53:55.712Z,4.70
2022-10-25T14:56:29.354Z,4.88
2022-10-25T14:58:59.421Z,4.72
2022-10-25T15:01:27.868Z,4.40
2022-10-25T15:03:58.918Z,4.55
2022-10-25T15:06:31.607Z,5.22
2022-10-25T15:09:41.235Z,5.05
2022-10-25T15:12:15.660Z,5.32
2022-10-25T15:14:47.128Z,4.53
2022-10-25T15:17:27.064Z,5.13
2022-10-25T15:20:35.077Z,4.55
2022-10-25T15:23:06.550Z,4.18
2022-10-25T15:25:39.736Z,4.88
2022-10-25T15:28:16.879Z,5.00
2022-10-25T15:30:50.546Z,4.78
2022-10-25T15:33:27.871Z,5.65
2022-10-25T15:36:06.383Z,5.20
2022-10-25T15:39:05.892Z,4.90
2022-10-25T15:41:25.185Z,5.03
2022-10-25T15:43:55.714Z,5.50
2022-10-25T15:46:34.518Z,5.70
2022-10-25T15:49:07.541Z,5.88
2022-10-25T15:51:39.321Z,5.35
2022-10-25T15:54:16.420Z,5.07
2022-10-25T15:56:45.826Z,5.63
2022-10-25T16:01:53.967Z,5.25
2022-10-25T16:04:22.155Z,5.00
2022-10-25T16:06:50.197Z,4.32
2022-10-25T16:09:18.369Z,4.65
2022-10-25T16:11:54.806Z,4.50
2022-10-25T16:14:26.327Z,4.68
2022-10-25T16:16:54.603Z,5.35
2022-10-25T16:19:22.728Z,6.53
2022-10-25T16:21:54.231Z,5.25
2022-10-25T16:24:22.269Z,5.32
2022-10-25T16:26:51.777Z,5.93
2022-10-25T16:29:24.553Z,5.80
2022-10-25T16:31:54.463Z,5.10
2022-10-25T16:34:22.698Z,5.50
2022-10-25T16:36:54.634Z,5.97
2022-10-25T16:39:22.751Z,5.35
2022-10-25T16:41:51.534Z,4.88
2022-10-25T16:44:20.625Z,4.93
2022-10-25T16:46:48.689Z,4.68
2022-10-25T16:49:16.758Z,4.82
2022-10-25T16:51:45.852Z,5.15
2022-10-25T16:54:15.594Z,5.90
2022-10-25T16:56:44.016Z,4.90
2022-10-25T16:59:12.159Z,5.45
2022-10-25T17:01:43.730Z,5.68
2022-10-25T17:04:16.399Z,5.85
2022-10-25T17:06:44.384Z,5.85
2022-10-25T17:09:12.420Z,5.22
2022-10-25T17:11:41.313Z,5.15
2022-10-25T17:14:13.137Z,5.28
2022-10-25T17:16:44.737Z,4.35
2022-10-25T17:19:13.851Z,5.05
2022-10-25T17:21:41.898Z,5.03
2022-10-25T17:24:10.156Z,5.22
2022-10-25T17:26:39.045Z,4.80
2022-10-25T17:29:06.993Z,5.07
2022-10-25T17:31:35.922Z,4.88
2022-10-25T17:34:04.768Z,5.00
2022-10-25T17:36:33.239Z,4.82
2022-10-25T17:39:01.607Z,4.82
2022-10-25T17:41:29.640Z,4.70
2022-10-25T17:43:57.647Z,4.65
2022-10-25T17:46:32.780Z,4.63
2022-10-25T17:49:03.814Z,5.05
2022-10-25T17:51:33.608Z,4.63
2022-10-25T17:54:01.729Z,4.47
2022-10-25T17:59:07.101Z,5.20
2022-10-25T18:01:36.799Z,5.28
2022-10-25T18:04:04.961Z,4.85
2022-10-25T18:06:34.152Z,4.32
2022-10-25T18:09:04.505Z,4.70
2022-10-25T18:11:32.700Z,5.30
2022-10-25T18:14:02.946Z,5.05
2022-10-25T18:16:31.505Z,4.55
2022-10-25T18:19:02.295Z,4.93
2022-10-25T18:21:32.069Z,4.63
2022-10-25T18:24:02.207Z,4.25
2022-10-25T18:26:30.342Z,4.50
2022-10-25T18:28:59.328Z,5.03
2022-10-25T18:31:27.736Z,5.05
2022-10-25T18:34:05.656Z,4.68
2022-10-25T18:36:33.833Z,4.75
2022-10-25T18:39:01.828Z,4.13
2022-10-25T18:41:32.494Z,4.45
2022-10-25T18:44:01.513Z,4.53
2022-10-25T18:46:32.556Z,5.40
2022-10-25T18:49:02.371Z,5.13
2022-10-25T18:51:31.120Z,4.75
2022-10-25T18:54:01.198Z,4.57
2022-10-25T18:56:31.487Z,4.97
2022-10-25T18:59:00.342Z,4.63
2022-10-25T19:01:34.221Z,4.18
2022-10-25T19:04:04.489Z,4.25
2022-10-25T19:06:34.262Z,5.00
2022-10-25T19:09:06.474Z,4.40
2022-10-25T19:11:35.744Z,4.35
2022-10-25T19:14:05.022Z,4.28
2022-10-25T19:16:34.129Z,4.25
2022-10-25T19:19:51.095Z,5.00
2022-10-25T19:22:19.375Z,4.15
2022-10-25T19:24:48.473Z,4.15
2022-10-25T19:27:16.921Z,4.60
2022-10-25T19:29:45.905Z,4.72
2022-10-25T19:32:14.094Z,5.00
2022-10-25T19:34:42.076Z,4.70
2022-10-25T19:37:11.924Z,4.90
2022-10-25T19:39:41.661Z,4.78
2022-10-25T19:44:40.132Z,3.95
2022-10-25T19:47:08.303Z,4.47
2022-10-25T19:49:36.223Z,4.85
2022-10-25T19:52:04.407Z,4.68
2022-10-25T19:54:32.460Z,4.53
2022-10-25T19:57:01.969Z,4.55
2022-10-25T19:59:32.805Z,5.03
2022-10-25T20:02:01.192Z,4.45
2022-10-25T20:04:30.997Z,4.35
2022-10-25T20:07:00.657Z,4.47
2022-10-25T20:11:56.314Z,4.68
2022-10-25T20:14:24.515Z,4.32
2022-10-25T20:16:52.502Z,4.75
2022-10-25T20:19:20.432Z,4.55
2022-10-25T20:21:49.733Z,5.22
2022-10-25T20:24:17.713Z,5.03
2022-10-25T20:26:50.000Z,4.95
2022-10-25T20:29:21.555Z,4.38
2022-10-25T20:31:51.611Z,4.30
2022-10-25T20:34:20.697Z,4.75
2022-10-25T20:36:50.163Z,4.75
2022-10-25T20:39:18.496Z,4.97
2022-10-25T20:41:46.580Z,4.47
2022-10-25T20:44:16.742Z,4.60
2022-10-25T20:46:44.725Z,4.65
2022-10-25T20:49:12.686Z,4.70
2022-10-25T20:51:41.703Z,4.75
2022-10-25T20:54:10.094Z,4.18
2022-10-25T20:56:40.006Z,4.55
2022-10-25T20:59:09.824Z,5.03
2022-10-25T21:01:37.992Z,4.18
2022-10-25T21:04:06.417Z,4.20
2022-10-25T21:06:36.643Z,4.70
2022-10-25T21:09:04.685Z,3.97
2022-10-25T21:11:33.324Z,4.40
2022-10-25T21:14:01.361Z,3.63
2022-10-25T21:16:29.320Z,5.00
2022-10-25T21:18:57.244Z,4.50
2022-10-25T21:21:25.313Z,4.55
2022-10-25T21:23:57.315Z,4.40
2022-10-25T21:26:25.409Z,4.53
2022-10-25T21:28:53.542Z,4.50
2022-10-25T21:31:21.596Z,4.35
2022-10-25T21:33:51.075Z,4.80
2022-10-25T21:36:21.401Z,4.38
2022-10-25T21:38:49.930Z,4.50
2022-10-25T21:41:21.204Z,4.78
2022-10-25T21:43:51.715Z,4.25
2022-10-25T21:46:21.896Z,4.75
2022-10-25T21:48:51.411Z,4.47
2022-10-25T21:51:28.407Z,4.75
2022-10-25T21:53:56.423Z,4.72
2022-10-25T21:56:31.290Z,4.57
2022-10-25T21:59:01.146Z,4.55
2022-10-25T22:01:30.827Z,4.78
2022-10-25T22:03:59.242Z,4.25
2022-10-25T22:06:28.567Z,4.70
2022-10-25T22:08:58.498Z,4.88
2022-10-25T22:11:29.398Z,4.07
2022-10-25T22:13:59.997Z,4.20
2022-10-25T22:16:28.995Z,5.05
2022-10-25T22:19:04.453Z,4.32
2022-10-25T22:21:38.472Z,4.78
2022-10-25T22:24:11.569Z,4.18
2022-10-25T22:26:42.319Z,4.20
2022-10-25T22:29:15.029Z,4.60
2022-10-25T22:31:43.097Z,4.70
2022-10-25T22:34:11.260Z,4.55
2022-10-25T22:36:41.769Z,4.30
2022-10-25T22:39:10.378Z,4.18
2022-10-25T22:41:39.257Z,5.03
2022-10-25T22:44:07.178Z,4.82
2022-10-25T22:46:36.684Z,4.70
2022-10-25T22:49:11.633Z,4.40
2022-10-25T22:51:40.193Z,4.60
2022-10-25T22:54:08.392Z,4.65
2022-10-25T22:56:36.596Z,4.50
2022-10-25T22:59:06.773Z,4.47
2022-10-25T23:01:37.289Z,3.92
2022-10-25T23:04:10.683Z,4.68
2022-10-25T23:06:41.506Z,4.38
2022-10-25T23:09:11.618Z,3.92
2022-10-25T23:11:43.204Z,4.95
2022-10-25T23:14:14.950Z,4.03
2022-10-25T23:16:46.536Z,4.78
2022-10-25T23:19:14.733Z,4.55
2022-10-25T23:21:42.668Z,4.32
2022-10-25T23:24:11.076Z,4.50
2022-10-25T23:26:39.474Z,4.32
2022-10-25T23:29:07.553Z,4.80
2022-10-25T23:31:35.622Z,4.60
2022-10-25T23:34:03.654Z,4.53
2022-10-25T23:36:38.177Z,4.00
2022-10-25T23:39:08.168Z,4.47
2022-10-25T23:41:36.505Z,4.95
2022-10-25T23:44:04.645Z,6.20
2022-10-25T23:46:32.817Z,5.95
2022-10-25T23:49:00.804Z,6.07
2022-10-25T23:51:28.774Z,5.90
2022-10-25T23:53:56.978Z,5.38
2022-10-25T23:56:24.921Z,5.55
2022-10-25T23:58:54.135Z,5.32
